Deal, New Jersey
Current Conditions -  °F | °C
As of 5:55 AM on Monday 20 Oct 2014 (Local Time) from KBLM Reporting Station
Clear Clear  
Wind Chill:   Ceiling: Unl
Heat Index:   Visibility: 10mi
Dew Point: -3°   Wind: 6mph
Humidity: 65%   Direction: 230°SW
Pressure: 30.11"   Gusts: NA
Location:  40.24°N, 74°W
Report Text: KBLM 200955Z AUTO 23005KT 10SM CLR 03/M03 A3011 RMK AO1
Loading
Personal Weather Stations






























Interactive Weather Map
Tropical Storm Tracking
New forecast layout! Learn more

10-Day Weather Forecast

Advertisements
Track Severe Weather on mobile